createdAt,value
2023-01-30T00:00:07.407Z,101332.41
2023-01-30T00:03:08.792Z,101342.94
2023-01-30T00:06:10.942Z,101346.50
2023-01-30T00:09:15.454Z,101356.09
2023-01-30T00:12:16.882Z,101362.16
2023-01-30T00:15:18.287Z,101368.22
2023-01-30T00:18:19.676Z,101376.16
2023-01-30T00:21:21.216Z,101382.13
2023-01-30T00:24:22.678Z,101379.53
2023-01-30T00:27:24.110Z,101376.06
2023-01-30T00:30:25.560Z,101363.97
2023-01-30T00:33:27.975Z,101359.88
2023-01-30T00:36:29.392Z,101342.72
2023-01-30T00:39:30.782Z,101345.66
2023-01-30T00:42:50.928Z,101336.94
2023-01-30T00:46:13.702Z,101319.75
2023-01-30T00:49:15.398Z,101321.59
2023-01-30T00:52:16.788Z,101327.63
2023-01-30T00:55:18.619Z,101320.94
2023-01-30T00:58:21.292Z,101308.72
2023-01-30T01:01:22.754Z,101320.00
2023-01-30T01:04:24.332Z,101303.56
2023-01-30T01:07:25.752Z,101306.31
2023-01-30T01:10:28.519Z,101288.13
2023-01-30T01:13:29.917Z,101290.03
2023-01-30T01:16:32.721Z,101277.19
2023-01-30T01:19:35.099Z,101271.09
2023-01-30T01:22:36.625Z,101276.41
2023-01-30T01:25:38.096Z,101273.00
2023-01-30T01:28:41.163Z,101254.78
2023-01-30T01:31:46.141Z,101244.47
2023-01-30T01:34:47.562Z,101231.47
2023-01-30T01:37:53.414Z,101245.47
2023-01-30T01:41:05.964Z,101255.97
2023-01-30T01:44:11.959Z,101225.69
2023-01-30T01:47:13.971Z,101224.00
2023-01-30T01:50:21.537Z,101242.03
2023-01-30T01:53:28.862Z,101240.31
2023-01-30T01:56:32.497Z,101239.53
2023-01-30T01:59:39.326Z,101212.00
2023-01-30T02:02:43.799Z,101204.25
2023-01-30T02:05:50.682Z,101203.38
2023-01-30T02:08:58.563Z,101214.84
2023-01-30T02:12:03.757Z,101201.75
2023-01-30T02:15:07.630Z,101215.59
2023-01-30T02:18:09.559Z,101194.84
2023-01-30T02:21:20.161Z,101194.00
2023-01-30T02:24:27.663Z,101181.88
2023-01-30T02:27:59.886Z,101187.16
2023-01-30T02:31:38.793Z,101147.19
2023-01-30T02:35:01.655Z,101150.59
2023-01-30T02:38:30.460Z,101155.75
2023-01-30T02:41:44.653Z,101155.66
2023-01-30T02:44:56.854Z,101158.25
2023-01-30T02:48:03.906Z,101159.09
2023-01-30T02:51:18.010Z,101153.78
2023-01-30T02:54:19.416Z,101136.31
2023-01-30T02:57:23.744Z,101130.22
2023-01-30T03:00:37.709Z,101139.66
2023-01-30T03:03:54.227Z,101159.56
2023-01-30T03:07:38.355Z,101170.03
2023-01-30T03:11:03.091Z,101189.00
2023-01-30T03:14:23.712Z,101182.94
2023-01-30T03:17:27.849Z,101182.00
2023-01-30T03:20:29.760Z,101189.88
2023-01-30T03:23:31.535Z,101182.94
2023-01-30T03:26:37.536Z,101181.25
2023-01-30T03:29:40.083Z,101194.13
2023-01-30T03:32:41.507Z,101189.88
2023-01-30T03:35:43.238Z,101189.69
2023-01-30T03:38:47.592Z,101189.03
2023-01-30T03:41:49.250Z,101187.19
2023-01-30T03:44:52.180Z,101188.91
2023-01-30T03:47:53.754Z,101189.81
2023-01-30T03:50:55.154Z,101188.09
2023-01-30T03:53:56.803Z,101183.81
2023-01-30T03:56:58.220Z,101190.72
2023-01-30T04:00:00.192Z,101182.97
2023-01-30T04:03:01.765Z,101195.13
2023-01-30T04:06:03.355Z,101183.91
2023-01-30T04:09:05.290Z,101186.56
2023-01-30T04:12:13.520Z,101184.81
2023-01-30T04:15:23.860Z,101195.13
2023-01-30T04:18:54.380Z,101196.97
2023-01-30T04:21:59.011Z,101194.38
2023-01-30T04:25:01.013Z,101180.63
2023-01-30T04:28:02.931Z,101171.16
2023-01-30T04:31:09.672Z,101165.19
2023-01-30T04:34:40.090Z,101157.50
2023-01-30T04:37:41.617Z,101147.13
2023-01-30T04:40:50.361Z,101140.09
2023-01-30T04:43:52.041Z,101134.81
2023-01-30T04:46:59.897Z,101129.66
2023-01-30T04:50:01.320Z,101115.69
2023-01-30T04:53:03.138Z,101111.47
2023-01-30T04:56:04.992Z,101107.88
2023-01-30T04:59:06.481Z,101100.81
2023-01-30T05:02:13.084Z,101098.25
2023-01-30T05:05:14.528Z,101100.00
2023-01-30T05:08:16.863Z,101110.50
2023-01-30T05:11:19.438Z,101108.72
2023-01-30T05:14:20.886Z,101108.69
2023-01-30T05:17:22.606Z,101102.75
2023-01-30T05:20:24.213Z,101097.59
2023-01-30T05:23:26.455Z,101098.47
2023-01-30T05:26:27.943Z,101084.66
2023-01-30T05:29:29.370Z,101082.03
2023-01-30T05:32:31.041Z,101064.69
2023-01-30T05:35:32.470Z,101088.13
2023-01-30T05:38:33.910Z,101091.63
2023-01-30T05:41:35.319Z,101091.63
2023-01-30T05:44:36.840Z,101082.09
2023-01-30T05:47:38.244Z,101086.47
2023-01-30T05:50:39.644Z,101083.03
2023-01-30T05:53:41.023Z,101093.38
2023-01-30T05:56:42.454Z,101098.53
2023-01-30T05:59:43.852Z,101100.28
2023-01-30T06:02:45.305Z,101100.38
2023-01-30T06:05:46.749Z,101098.63
2023-01-30T06:08:52.171Z,101099.47
2023-01-30T06:11:55.281Z,101102.97
2023-01-30T06:14:56.754Z,101089.03
2023-01-30T06:17:58.127Z,101096.91
2023-01-30T06:20:59.736Z,101104.63
2023-01-30T06:24:02.149Z,101090.00
2023-01-30T06:27:03.538Z,101080.41
2023-01-30T06:30:05.427Z,101080.38
2023-01-30T06:33:08.050Z,101087.38
2023-01-30T06:36:09.701Z,101080.34
2023-01-30T06:39:11.271Z,101080.44
2023-01-30T06:42:12.649Z,101076.06
2023-01-30T06:45:16.612Z,101080.44
2023-01-30T06:48:18.359Z,101096.03
2023-01-30T06:51:19.765Z,101105.66
2023-01-30T06:54:21.184Z,101116.88
2023-01-30T06:57:22.739Z,101121.25
2023-01-30T07:00:24.203Z,101136.94
2023-01-30T07:03:25.594Z,101127.44
2023-01-30T07:06:28.565Z,101102.22
2023-01-30T07:09:29.987Z,101107.44
2023-01-30T07:12:31.481Z,101097.06
2023-01-30T07:15:33.450Z,101066.75
2023-01-30T07:18:34.851Z,101064.13
2023-01-30T07:21:36.237Z,101059.00
2023-01-30T07:24:38.450Z,101034.75
2023-01-30T07:27:41.108Z,101047.81
2023-01-30T07:30:42.717Z,101053.00
2023-01-30T07:33:44.128Z,101022.63
2023-01-30T07:36:45.498Z,101021.84
2023-01-30T07:39:46.902Z,101011.41
2023-01-30T07:43:03.542Z,101021.75
2023-01-30T07:46:05.486Z,101042.59
2023-01-30T07:49:08.909Z,101049.56
2023-01-30T07:52:10.403Z,101071.13
2023-01-30T07:55:11.777Z,101069.38
2023-01-30T07:58:15.416Z,101027.84
2023-01-30T08:01:17.933Z,101024.41
2023-01-30T08:04:19.484Z,101028.78
2023-01-30T08:07:20.884Z,101015.78
2023-01-30T08:10:22.533Z,100994.97
2023-01-30T08:13:24.017Z,101019.22
2023-01-30T08:16:25.583Z,101032.25
2023-01-30T08:19:26.995Z,101035.63
2023-01-30T08:22:29.310Z,101024.44
2023-01-30T08:25:30.788Z,101034.88
2023-01-30T08:28:32.399Z,101019.31
2023-01-30T08:31:33.911Z,101035.72
2023-01-30T08:34:35.961Z,101034.75
2023-01-30T08:37:39.901Z,101040.88
2023-01-30T08:40:41.866Z,101019.22
2023-01-30T08:43:43.242Z,101015.75
2023-01-30T08:46:44.696Z,101021.03
2023-01-30T08:49:46.105Z,101016.66
2023-01-30T08:52:47.506Z,101014.94
2023-01-30T08:55:52.817Z,101003.72
2023-01-30T08:58:54.223Z,101016.78
2023-01-30T09:01:55.624Z,101007.31
2023-01-30T09:04:57.118Z,101015.13
2023-01-30T09:07:58.578Z,101010.72
2023-01-30T09:11:01.143Z,101018.59
2023-01-30T09:14:02.619Z,101021.19
2023-01-30T09:17:04.060Z,101018.63
2023-01-30T09:20:07.597Z,101030.78
2023-01-30T09:23:09.023Z,101008.31
2023-01-30T09:26:10.507Z,100997.03
2023-01-30T09:29:12.730Z,101004.91
2023-01-30T09:32:14.101Z,100990.25
2023-01-30T09:35:15.578Z,100989.44
2023-01-30T09:38:17.310Z,100974.69
2023-01-30T09:41:50.243Z,100967.88
2023-01-30T09:45:15.206Z,100968.81
2023-01-30T09:48:42.509Z,100978.34
2023-01-30T09:52:09.670Z,100978.34
2023-01-30T09:55:19.671Z,100997.53
2023-01-30T09:58:23.552Z,100993.22
2023-01-30T10:01:44.277Z,100975.09
2023-01-30T10:05:00.437Z,100973.47
2023-01-30T10:08:26.836Z,100977.78
2023-01-30T10:11:42.861Z,100980.41
2023-01-30T10:15:09.611Z,100989.09
2023-01-30T10:18:42.156Z,100982.22
2023-01-30T10:21:59.126Z,100968.38
2023-01-30T10:25:19.471Z,100971.94
2023-01-30T10:28:26.894Z,100965.84
2023-01-30T10:31:37.174Z,100958.97
2023-01-30T10:34:42.054Z,100971.97
2023-01-30T10:37:55.836Z,100965.00
2023-01-30T10:41:19.101Z,100962.44
2023-01-30T10:44:22.656Z,100962.38
2023-01-30T10:47:46.578Z,100974.63
2023-01-30T10:50:59.219Z,100969.44
2023-01-30T10:54:03.631Z,100972.88
2023-01-30T10:57:38.555Z,100973.75
2023-01-30T11:00:51.405Z,100977.25
2023-01-30T11:04:02.459Z,100972.03
2023-01-30T11:07:04.076Z,100978.22
2023-01-30T11:10:16.746Z,100972.13
2023-01-30T11:13:20.804Z,100979.13
2023-01-30T11:16:22.405Z,100977.28
2023-01-30T11:19:34.366Z,100991.28
2023-01-30T11:22:36.654Z,100973.03
2023-01-30T11:26:10.452Z,100980.78
2023-01-30T11:29:25.161Z,100971.22
2023-01-30T11:32:28.804Z,100962.50
2023-01-30T11:35:31.282Z,100968.63
2023-01-30T11:38:35.238Z,100973.84
2023-01-30T11:41:36.605Z,100963.41
2023-01-30T11:44:42.033Z,100967.78
2023-01-30T11:47:57.346Z,100952.13
2023-01-30T11:51:04.555Z,100953.84
2023-01-30T11:54:12.417Z,100968.72
2023-01-30T11:57:15.869Z,100961.72
2023-01-30T12:00:20.768Z,100952.19
2023-01-30T12:03:25.521Z,100953.97
2023-01-30T12:06:31.014Z,100967.84
2023-01-30T12:09:35.760Z,100948.75
2023-01-30T12:12:45.270Z,100956.53
2023-01-30T12:15:50.379Z,100948.75
2023-01-30T12:18:51.798Z,100947.00
2023-01-30T12:22:16.668Z,100934.00
2023-01-30T12:25:35.608Z,100920.13
2023-01-30T12:28:54.947Z,100921.94
2023-01-30T12:35:17.833Z,100918.44
2023-01-30T12:38:39.182Z,100938.44
2023-01-30T12:41:50.046Z,100932.38
2023-01-30T12:45:21.244Z,100938.50
2023-01-30T12:48:33.777Z,100940.25
2023-01-30T12:51:43.747Z,100938.53
2023-01-30T12:55:00.096Z,100931.59
2023-01-30T12:58:14.725Z,100937.72
2023-01-30T13:01:29.364Z,100929.03
2023-01-30T13:05:04.682Z,100927.31
2023-01-30T13:08:18.803Z,100922.13
2023-01-30T13:11:42.110Z,100918.66
2023-01-30T13:14:52.837Z,100929.06
2023-01-30T13:18:05.610Z,100934.31
2023-01-30T13:22:02.633Z,100950.84
2023-01-30T13:25:27.093Z,100944.75
2023-01-30T13:28:34.219Z,100951.72
2023-01-30T13:31:40.039Z,100944.78
2023-01-30T13:34:45.248Z,100948.28
2023-01-30T13:37:49.591Z,100943.09
2023-01-30T13:40:53.629Z,100951.78
2023-01-30T13:43:55.309Z,100947.44
2023-01-30T13:46:59.480Z,100959.63
2023-01-30T13:50:12.329Z,100954.41
2023-01-30T13:53:50.020Z,100960.50
2023-01-30T13:57:15.918Z,100953.53
2023-01-30T14:00:28.868Z,100957.03
2023-01-30T14:03:32.334Z,100959.63
2023-01-30T14:06:37.470Z,100952.72
2023-01-30T14:10:10.927Z,100951.84
2023-01-30T14:13:16.000Z,100957.94
2023-01-30T14:16:17.598Z,100957.94
2023-01-30T14:19:40.095Z,100950.09
2023-01-30T14:22:51.998Z,100968.38
2023-01-30T14:25:57.807Z,100974.47
2023-01-30T14:28:59.225Z,100981.44
2023-01-30T14:32:00.826Z,100984.94
2023-01-30T14:35:17.005Z,100984.94
2023-01-30T14:38:19.962Z,100991.88
2023-01-30T14:41:27.467Z,100988.38
2023-01-30T14:45:14.680Z,100990.13
2023-01-30T14:48:41.619Z,100988.38
2023-01-30T14:51:47.794Z,100981.41
2023-01-30T14:54:50.516Z,100976.19
2023-01-30T14:58:01.477Z,100963.16
2023-01-30T15:01:03.186Z,100974.47
2023-01-30T15:04:05.207Z,100980.56
2023-01-30T15:07:25.452Z,100983.16
2023-01-30T15:10:45.190Z,100991.00
2023-01-30T15:14:02.052Z,100972.75
2023-01-30T15:17:22.711Z,100977.09
2023-01-30T15:20:50.473Z,100971.00
2023-01-30T15:24:27.280Z,100987.50
2023-01-30T15:28:19.673Z,101004.94
2023-01-30T15:31:23.139Z,101004.94
2023-01-30T15:34:29.429Z,101023.19
2023-01-30T15:37:41.315Z,101028.41
2023-01-30T15:40:42.715Z,101031.88
2023-01-30T15:44:07.644Z,101047.53
2023-01-30T15:47:27.907Z,101050.13
2023-01-30T15:50:29.498Z,101033.56
2023-01-30T15:53:37.250Z,101038.78
2023-01-30T15:56:40.091Z,101038.78
2023-01-30T15:59:41.856Z,101057.03
2023-01-30T16:02:44.113Z,101058.75
2023-01-30T16:05:55.215Z,101066.53
2023-01-30T16:09:03.713Z,101079.59
2023-01-30T16:12:05.327Z,101086.53
2023-01-30T16:15:29.804Z,101098.69
2023-01-30T16:18:55.942Z,101096.13
2023-01-30T16:22:01.867Z,101090.84
2023-01-30T16:25:04.442Z,101103.06
2023-01-30T16:28:05.931Z,101101.31
2023-01-30T16:31:09.908Z,101116.13
2023-01-30T16:34:29.607Z,101122.19
2023-01-30T16:37:31.759Z,101136.91
2023-01-30T16:40:45.020Z,101137.81
2023-01-30T16:43:46.534Z,101146.47
2023-01-30T16:46:49.593Z,101142.97
2023-01-30T16:49:53.015Z,101156.84
2023-01-30T16:52:55.432Z,101156.78
2023-01-30T16:55:59.646Z,101168.94
2023-01-30T16:59:01.858Z,101173.28
2023-01-30T17:02:06.644Z,101175.84
2023-01-30T17:05:20.978Z,101180.22
2023-01-30T17:08:31.341Z,101179.41
2023-01-30T17:11:38.482Z,101193.25
2023-01-30T17:14:39.946Z,101176.72
2023-01-30T17:17:41.772Z,101185.44
2023-01-30T17:20:47.486Z,101186.31
2023-01-30T17:23:52.419Z,101200.16
2023-01-30T17:27:00.144Z,101207.13
2023-01-30T17:30:01.641Z,101207.13
2023-01-30T17:33:03.366Z,101219.28
2023-01-30T17:36:11.363Z,101221.88
2023-01-30T17:39:16.208Z,101234.91
2023-01-30T17:42:20.909Z,101243.63
2023-01-30T17:45:22.322Z,101234.97
2023-01-30T17:48:23.718Z,101244.50
2023-01-30T17:51:25.112Z,101245.38
2023-01-30T17:54:26.837Z,101255.88
2023-01-30T17:57:28.409Z,101237.59
2023-01-30T18:00:29.834Z,101247.19
2023-01-30T18:03:31.283Z,101244.56
2023-01-30T18:06:34.065Z,101252.47
2023-01-30T18:09:35.738Z,101261.22
2023-01-30T18:12:37.104Z,101259.44
2023-01-30T18:15:38.486Z,101260.34
2023-01-30T18:18:39.875Z,101252.50
2023-01-30T18:21:44.890Z,101254.19
2023-01-30T18:24:46.426Z,101269.00
2023-01-30T18:27:48.015Z,101275.97
2023-01-30T18:30:49.608Z,101273.44
2023-01-30T18:33:52.212Z,101276.91
2023-01-30T18:36:53.672Z,101281.19
2023-01-30T18:39:55.069Z,101283.81
2023-01-30T18:42:56.495Z,101281.22
2023-01-30T18:46:03.065Z,101289.91
2023-01-30T18:49:04.746Z,101294.25
2023-01-30T18:52:06.148Z,101288.19
2023-01-30T18:55:07.928Z,101294.25
2023-01-30T18:58:09.413Z,101303.91
2023-01-30T19:01:17.111Z,101313.50
2023-01-30T19:04:18.529Z,101306.50
2023-01-30T19:07:20.170Z,101316.03
2023-01-30T19:10:22.046Z,101314.34
2023-01-30T19:13:36.617Z,101315.16
2023-01-30T19:16:38.918Z,101327.38
2023-01-30T19:19:40.338Z,101326.50
2023-01-30T19:22:42.490Z,101330.88
2023-01-30T19:25:43.930Z,101329.13
2023-01-30T19:28:46.106Z,101337.84
2023-01-30T19:31:47.634Z,101340.50
2023-01-30T19:34:50.168Z,101346.63
2023-01-30T19:37:54.997Z,101352.72
2023-01-30T19:40:56.378Z,101352.69
2023-01-30T19:43:59.798Z,101360.53
2023-01-30T19:47:01.316Z,101360.53
2023-01-30T19:50:02.808Z,101366.66
2023-01-30T19:53:04.322Z,101363.19
2023-01-30T19:56:07.092Z,101369.31
2023-01-30T19:59:09.200Z,101364.94
2023-01-30T20:02:11.315Z,101370.16
2023-01-30T20:05:12.870Z,101367.53
2023-01-30T20:08:25.368Z,101371.06
2023-01-30T20:11:32.568Z,101378.00
2023-01-30T20:14:34.075Z,101387.69
2023-01-30T20:17:36.134Z,101379.84
2023-01-30T20:20:37.508Z,101380.63
2023-01-30T20:23:41.559Z,101378.03
2023-01-30T20:26:47.153Z,101382.44
2023-01-30T20:29:49.607Z,101386.72
2023-01-30T20:32:54.345Z,101392.78
2023-01-30T20:36:01.103Z,101398.00
2023-01-30T20:39:04.240Z,101405.03
2023-01-30T20:42:06.302Z,101412.84
2023-01-30T20:45:08.380Z,101402.53
2023-01-30T20:48:09.763Z,101412.97
2023-01-30T20:51:13.858Z,101414.69
2023-01-30T20:54:16.302Z,101414.72
2023-01-30T20:57:17.730Z,101430.34
2023-01-30T21:00:19.452Z,101428.63
2023-01-30T21:03:24.165Z,101438.22
2023-01-30T21:06:42.573Z,101440.84
2023-01-30T21:09:46.297Z,101446.91
2023-01-30T21:12:47.661Z,101448.66
2023-01-30T21:15:49.228Z,101452.97
2023-01-30T21:18:53.512Z,101446.06
2023-01-30T21:22:07.367Z,101451.34
2023-01-30T21:25:08.791Z,101458.28
2023-01-30T21:28:10.178Z,101462.63
2023-01-30T21:31:20.705Z,101470.47
2023-01-30T21:34:22.471Z,101463.50
2023-01-30T21:37:42.586Z,101472.22
2023-01-30T21:41:09.651Z,101477.50
2023-01-30T21:44:12.575Z,101479.25
2023-01-30T21:47:13.958Z,101487.06
2023-01-30T21:50:15.740Z,101483.59
2023-01-30T21:53:17.123Z,101485.38
2023-01-30T21:56:18.584Z,101494.06
2023-01-30T21:59:20.016Z,101502.75
2023-01-30T22:02:21.398Z,101494.94
2023-01-30T22:05:22.900Z,101501.91
2023-01-30T22:08:24.283Z,101502.72
2023-01-30T22:11:27.961Z,101511.38
2023-01-30T22:14:29.343Z,101501.78
2023-01-30T22:17:30.739Z,101499.25
2023-01-30T22:20:32.174Z,101498.44
2023-01-30T22:23:39.661Z,101499.25
2023-01-30T22:26:41.096Z,101502.75
2023-01-30T22:29:42.604Z,101503.56
2023-01-30T22:32:43.974Z,101503.59
2023-01-30T22:35:50.073Z,101504.47
2023-01-30T22:38:51.600Z,101514.03
2023-01-30T22:41:52.972Z,101509.63
2023-01-30T22:44:54.656Z,101506.97
2023-01-30T22:47:56.180Z,101503.50
2023-01-30T22:51:22.360Z,101510.47
2023-01-30T22:54:25.053Z,101510.38
2023-01-30T22:57:26.491Z,101520.84
2023-01-30T23:00:27.947Z,101515.59
2023-01-30T23:03:29.404Z,101513.81
2023-01-30T23:06:31.631Z,101513.03
2023-01-30T23:09:33.091Z,101507.03
2023-01-30T23:12:53.227Z,101522.56
2023-01-30T23:15:59.441Z,101517.31
2023-01-30T23:19:03.446Z,101532.09
2023-01-30T23:22:04.930Z,101529.47
2023-01-30T23:25:06.731Z,101525.94
2023-01-30T23:28:08.812Z,101532.00
2023-01-30T23:31:16.252Z,101539.81
2023-01-30T23:34:19.142Z,101531.13
2023-01-30T23:37:40.551Z,101525.94
2023-01-30T23:40:43.270Z,101518.00
2023-01-30T23:43:45.532Z,101515.38
2023-01-30T23:46:46.993Z,101517.00
2023-01-30T23:49:48.407Z,101523.16
2023-01-30T23:52:49.797Z,101529.25
2023-01-30T23:55:52.668Z,101517.97
2023-01-30T23:58:54.170Z,101519.56
